Time;durP1;ratioP1;P1;durP2;ratioP2;P2;SDS_P1;SDS_P2;PMS_P1;PMS_P2;Temp;Humidity;BMP_temperature;BMP_pressure;BME280_temperature;BME280_humidity;BME280_pressure;Samples;Min_cycle;Max_cycle;Signal;HPM_P1;HPM_P2
2023/06/20 00:01:00;;;;;;;4.97;2.55;;;;;;;20.30;93.12;95903.13;5097562;28;20226;-70
2023/06/20 00:03:26;;;;;;;3.13;2.28;;;;;;;20.12;94.31;95889.22;5097641;28;20888;-70
2023/06/20 00:05:53;;;;;;;4.38;2.30;;;;;;;20.08;94.75;95883.53;5097660;28;20210;-70
2023/06/20 00:08:21;;;;;;;4.80;2.38;;;;;;;20.20;94.80;95887.75;5096999;28;20195;-70
2023/06/20 00:10:47;;;;;;;6.45;3.15;;;;;;;20.26;93.92;95900.16;5097281;28;21011;-70
2023/06/20 00:13:17;;;;;;;3.17;2.38;;;;;;;20.45;93.02;95893.47;5097271;28;20702;-70
2023/06/20 00:15:44;;;;;;;4.47;2.17;;;;;;;20.46;92.85;95897.75;5097321;28;20252;-70
2023/06/20 00:18:10;;;;;;;3.45;2.10;;;;;;;20.34;92.79;95893.56;5096848;28;20195;-70
2023/06/20 00:20:37;;;;;;;2.65;1.90;;;;;;;20.39;92.70;95904.34;5096421;28;20214;-70
2023/06/20 00:23:03;;;;;;;3.17;2.13;;;;;;;20.37;92.76;95906.47;5097166;28;20199;-70
2023/06/20 00:25:31;;;;;;;4.25;2.38;;;;;;;20.44;92.93;95909.78;5097329;28;20701;-70
2023/06/20 00:27:57;;;;;;;3.80;2.35;;;;;;;20.33;93.48;95913.38;5096946;28;20207;-70
2023/06/20 00:30:24;;;;;;;6.13;2.58;;;;;;;20.28;93.19;95922.13;5096842;28;20217;-70
2023/06/20 00:32:50;;;;;;;6.03;2.25;;;;;;;20.27;93.96;95922.38;5096810;28;20227;-70
2023/06/20 00:35:17;;;;;;;3.25;2.00;;;;;;;20.12;94.31;95922.13;5097499;28;20206;-70
2023/06/20 00:37:43;;;;;;;4.15;2.28;;;;;;;19.99;95.74;95935.81;5095993;28;20948;-70
2023/06/20 00:40:10;;;;;;;4.07;2.13;;;;;;;20.14;94.65;95930.72;5097481;28;20199;-70
2023/06/20 00:42:38;;;;;;;5.22;2.22;;;;;;;20.19;94.69;95936.97;5096955;28;20218;-70
2023/06/20 00:45:23;;;;;;;4.18;2.28;;;;;;;20.17;94.98;95946.28;5096662;28;21191;-70
2023/06/20 00:47:51;;;;;;;6.15;2.92;;;;;;;20.29;94.91;95955.06;5096630;28;20209;-70
2023/06/20 00:50:18;;;;;;;4.57;2.10;;;;;;;20.30;94.75;95953.97;5097231;28;20312;-70
2023/06/20 00:52:45;;;;;;;3.50;2.20;;;;;;;20.16;95.65;95959.91;5095920;28;20222;-70
2023/06/20 00:55:13;;;;;;;4.63;2.28;;;;;;;20.15;96.26;95968.97;5096668;28;21188;-70
2023/06/20 00:57:43;;;;;;;2.90;1.67;;;;;;;20.20;95.44;95973.38;5096975;28;20207;-70
2023/06/20 01:00:12;;;;;;;3.75;2.38;;;;;;;20.17;95.77;95978.38;5096610;28;20194;-70
2023/06/20 01:02:38;;;;;;;8.50;2.60;;;;;;;20.14;96.56;95988.75;5096532;28;20273;-70
2023/06/20 01:05:06;;;;;;;6.07;2.65;;;;;;;20.31;96.17;95985.03;5096908;28;20195;-70
2023/06/20 01:07:39;;;;;;;3.88;2.22;;;;;;;20.38;95.57;95993.75;5096215;28;20210;-70
2023/06/20 01:10:16;;;;;;;4.88;2.60;;;;;;;20.31;96.37;95987.72;5096227;28;20261;-70
2023/06/20 01:12:52;;;;;;;3.38;1.98;;;;;;;20.34;96.89;95987.22;5096925;28;21021;-70
2023/06/20 01:15:27;;;;;;;4.22;2.30;;;;;;;20.39;96.55;95996.19;5097105;28;20206;-70
2023/06/20 01:18:05;;;;;;;4.97;2.95;;;;;;;20.40;98.78;96010.34;5095760;28;20706;-70
2023/06/20 01:20:34;;;;;;;6.68;2.85;;;;;;;20.33;100.00;96063.25;5096411;28;20191;-70
2023/06/20 01:23:04;;;;;;;4.78;2.80;;;;;;;20.22;100.00;96089.00;5096286;28;20866;-71
2023/06/20 01:25:54;;;;;;;4.40;2.33;;;;;;;20.38;100.00;96071.38;5096691;28;20222;-70
2023/06/20 01:28:28;;;;;;;6.25;3.35;;;;;;;20.52;98.79;96083.38;5096138;28;20211;-70
2023/06/20 01:31:00;;;;;;;3.15;2.03;;;;;;;20.56;98.37;96074.63;5095909;28;20284;-70
2023/06/20 01:33:31;;;;;;;4.90;2.28;;;;;;;20.65;97.60;96077.72;5096301;28;20203;-70
2023/06/20 01:36:00;;;;;;;5.00;2.05;;;;;;;20.71;97.56;96077.56;5096393;28;21228;-70
2023/06/20 01:38:30;;;;;;;2.20;1.25;;;;;;;20.83;95.71;96080.19;5096039;28;20199;-70
2023/06/20 01:40:59;;;;;;;3.13;1.77;;;;;;;20.82;94.85;96083.91;5096045;28;20242;-70
2023/06/20 01:43:29;;;;;;;2.90;1.60;;;;;;;20.83;94.52;96085.56;5096182;28;20874;-71
2023/06/20 01:45:57;;;;;;;1.80;1.40;;;;;;;20.95;92.92;96079.03;5099626;28;20253;-70
2023/06/20 01:48:26;;;;;;;3.75;2.03;;;;;;;21.05;92.46;96080.03;5099447;28;20199;-70
2023/06/20 01:50:54;;;;;;;4.95;2.03;;;;;;;21.05;91.79;96082.69;5099920;28;20233;-70
2023/06/20 01:53:22;;;;;;;7.63;1.90;;;;;;;21.05;92.08;96089.91;5100256;28;20267;-71
2023/06/20 01:55:53;;;;;;;4.15;2.00;;;;;;;21.14;90.87;96091.94;5099805;28;20219;-71
2023/06/20 01:58:21;;;;;;;2.13;1.67;;;;;;;21.19;90.57;96089.31;5098987;28;20202;-70
2023/06/20 02:00:49;;;;;;;5.00;1.83;;;;;;;21.21;91.05;96083.75;5099831;28;20207;-70
2023/06/20 02:03:17;;;;;;;3.53;1.77;;;;;;;21.15;90.68;96090.88;5100231;28;20195;-70
2023/06/20 02:05:45;;;;;;;4.88;2.28;;;;;;;21.15;90.97;96090.88;5099777;28;20207;-70
2023/06/20 02:08:13;;;;;;;6.97;2.15;;;;;;;21.30;89.80;96092.97;5099295;28;20199;-70
2023/06/20 02:10:42;;;;;;;5.35;2.20;;;;;;;21.23;90.64;96087.78;5099912;28;20219;-70
2023/06/20 02:13:10;;;;;;;8.50;1.98;;;;;;;21.30;89.70;96092.97;5099324;28;20214;-71
2023/06/20 02:15:38;;;;;;;4.38;1.77;;;;;;;21.33;89.36;96087.13;5099213;28;20207;-70
2023/06/20 02:18:04;;;;;;;2.53;1.33;;;;;;;21.33;89.71;96087.91;5099876;28;20199;-70
2023/06/20 02:20:31;;;;;;;4.70;2.25;;;;;;;21.35;89.08;96091.19;5099512;28;20196;-70
2023/06/20 02:22:57;;;;;;;4.18;1.90;;;;;;;21.41;88.43;96097.41;5099057;27;20266;-70
2023/06/20 02:25:30;;;;;;;4.32;1.60;;;;;;;21.43;88.82;96102.31;5100030;28;20200;-70
2023/06/20 02:27:57;;;;;;;4.60;1.92;;;;;;;21.35;89.47;96101.09;5099010;28;20203;-70
2023/06/20 02:30:29;;;;;;;3.28;1.60;;;;;;;21.42;89.43;96096.34;5098865;28;21086;-70
2023/06/20 02:32:58;;;;;;;3.10;2.08;;;;;;;21.43;89.50;96098.78;5098886;28;20801;-70
2023/06/20 02:35:25;;;;;;;3.17;1.58;;;;;;;21.40;90.30;96091.25;5097121;28;20206;-70
2023/06/20 02:37:54;;;;;;;2.78;1.27;;;;;;;21.29;91.81;96092.16;5098645;27;20203;-70
2023/06/20 02:40:23;;;;;;;2.72;1.40;;;;;;;21.28;91.51;96092.41;5099450;28;20206;-71
2023/06/20 02:42:50;;;;;;;3.15;1.65;;;;;;;21.25;94.07;96093.69;5098832;28;20292;-70
2023/06/20 02:45:17;;;;;;;2.20;1.60;;;;;;;21.30;94.72;96093.78;5098889;28;20203;-71
2023/06/20 02:47:57;;;;;;;3.08;1.30;;;;;;;21.42;95.08;96081.91;5098254;28;20211;-71
2023/06/20 02:50:29;;;;;;;6.53;1.65;;;;;;;21.43;95.66;96088.06;5099438;28;20219;-70
2023/06/20 02:53:03;;;;;;;2.70;1.33;;;;;;;21.39;95.06;96091.50;5098805;28;20272;-70
2023/06/20 02:55:36;;;;;;;2.35;1.48;;;;;;;21.41;95.69;96089.38;5099002;28;20570;-70
2023/06/20 02:58:11;;;;;;;4.07;1.80;;;;;;;21.41;95.96;96090.19;5098412;28;20211;-70
2023/06/20 03:00:39;;;;;;;2.53;1.67;;;;;;;21.38;97.94;96095.22;5098643;28;20203;-70
2023/06/20 03:03:12;;;;;;;4.13;1.60;;;;;;;21.42;98.58;96100.66;5098408;28;20294;-71
2023/06/20 03:05:43;;;;;;;6.13;2.97;;;;;;;21.35;100.00;96099.22;5098906;27;20218;-70
2023/06/20 03:08:11;;;;;;;3.75;2.00;;;;;;;21.28;100.00;96105.81;5097534;28;21127;-70
2023/06/20 03:10:38;;;;;;;3.05;1.77;;;;;;;21.17;100.00;96115.56;5098206;28;20229;-70
2023/06/20 03:13:05;;;;;;;3.08;1.45;;;;;;;21.11;100.00;96105.81;5098974;28;20210;-70
2023/06/20 03:15:32;;;;;;;3.35;1.70;;;;;;;20.90;100.00;96114.59;5098603;28;20226;-70
2023/06/20 03:18:00;;;;;;;3.42;2.00;;;;;;;21.08;100.00;96114.34;5097553;28;20207;-70
2023/06/20 03:20:28;;;;;;;2.80;1.73;;;;;;;21.06;100.00;96107.63;5099246;28;20192;-71
2023/06/20 03:22:54;;;;;;;8.32;1.85;;;;;;;20.98;100.00;96116.06;5098710;28;20231;-70
2023/06/20 03:25:21;;;;;;;5.25;2.50;;;;;;;21.01;100.00;96120.94;5097996;28;20211;-70
2023/06/20 03:27:47;;;;;;;4.95;2.33;;;;;;;20.94;100.00;96115.75;5097871;27;20203;-70
2023/06/20 03:30:15;;;;;;;3.22;1.40;;;;;;;21.02;100.00;96109.16;5098697;28;20588;-70
2023/06/20 03:32:42;;;;;;;2.30;1.80;;;;;;;20.77;100.00;96105.25;5097608;28;20605;-70
2023/06/20 03:35:08;;;;;;;2.85;1.50;;;;;;;20.89;100.00;96091.53;5098062;28;20207;-70
2023/06/20 03:37:36;;;;;;;2.45;1.70;;;;;;;20.92;100.00;96085.69;5097694;28;20199;-70
2023/06/20 03:40:05;;;;;;;2.80;1.30;;;;;;;20.82;100.00;96083.91;5098473;28;20196;-70
2023/06/20 03:42:32;;;;;;;2.70;1.33;;;;;;;20.79;100.00;96074.50;5098264;28;20245;-71
2023/06/20 03:44:59;;;;;;;3.63;1.23;;;;;;;20.78;100.00;96062.16;5097882;28;20199;-70
2023/06/20 03:47:25;;;;;;;2.00;1.17;;;;;;;20.57;100.00;96084.28;5097448;28;20198;-69
2023/06/20 03:49:52;;;;;;;2.33;1.10;;;;;;;20.41;100.00;96077.03;5097857;28;20219;-69
2023/06/20 03:52:18;;;;;;;2.25;1.55;;;;;;;20.63;100.00;96058.41;5097878;28;20215;-69
2023/06/20 03:54:46;;;;;;;2.55;1.50;;;;;;;20.78;100.00;96077.44;5097804;28;20579;-67
2023/06/20 03:57:12;;;;;;;3.90;2.08;;;;;;;20.83;100.00;96077.50;5097480;28;20207;-68
2023/06/20 03:59:39;;;;;;;2.10;1.33;;;;;;;20.82;100.00;96082.03;5097624;28;21098;-67
2023/06/20 04:02:06;;;;;;;3.63;1.48;;;;;;;20.91;100.00;96084.09;5097460;28;20218;-68
2023/06/20 04:04:33;;;;;;;2.42;1.55;;;;;;;20.90;100.00;96109.25;5097191;28;21002;-67
2023/06/20 04:06:59;;;;;;;3.78;1.35;;;;;;;20.83;100.00;96096.25;5097403;28;20207;-67
2023/06/20 04:09:26;;;;;;;2.05;1.15;;;;;;;20.80;100.00;96097.56;5097087;28;20202;-67
2023/06/20 04:11:54;;;;;;;2.33;1.30;;;;;;;20.90;100.00;96103.88;5096724;28;20752;-68
2023/06/20 04:14:21;;;;;;;2.95;1.63;;;;;;;20.86;100.00;96089.38;5097397;28;20202;-68
2023/06/20 04:16:49;;;;;;;2.80;1.77;;;;;;;20.79;100.00;96112.00;5097668;28;21242;-67
2023/06/20 04:19:17;;;;;;;2.92;1.25;;;;;;;20.70;100.00;96140.19;5096822;28;20195;-67
2023/06/20 04:21:43;;;;;;;1.65;1.10;;;;;;;20.60;100.00;96128.50;5096765;27;21193;-67
2023/06/20 04:24:10;;;;;;;3.45;1.42;;;;;;;20.55;100.00;96123.84;5105163;28;20199;-67
2023/06/20 04:26:37;;;;;;;2.38;0.90;;;;;;;20.64;100.00;96140.34;5104852;28;20203;-67
2023/06/20 04:29:05;;;;;;;1.48;0.85;;;;;;;20.69;100.00;96127.06;5102060;28;20199;-67
2023/06/20 04:31:31;;;;;;;3.10;1.30;;;;;;;20.69;100.00;96127.06;5102913;28;20223;-67
2023/06/20 04:33:59;;;;;;;2.13;1.10;;;;;;;20.67;100.00;96105.88;5102751;28;20199;-67
2023/06/20 04:36:26;;;;;;;2.10;1.20;;;;;;;20.80;100.00;96116.31;5103120;28;20225;-67
2023/06/20 04:38:53;;;;;;;1.42;0.82;;;;;;;20.84;100.00;96126.28;5100786;28;20602;-67
2023/06/20 04:41:20;;;;;;;1.58;1.10;;;;;;;20.73;100.00;96125.56;5102014;28;20227;-67
2023/06/20 04:43:46;;;;;;;1.80;1.10;;;;;;;20.92;100.00;96109.78;5103055;28;20690;-67
2023/06/20 04:46:15;;;;;;;2.47;0.98;;;;;;;21.03;100.00;96106.22;5102863;28;20195;-67
2023/06/20 04:48:42;;;;;;;2.53;1.10;;;;;;;21.04;100.00;96115.91;5103431;28;20726;-67
2023/06/20 04:51:09;;;;;;;2.15;1.13;;;;;;;21.01;100.00;96113.69;5102053;28;20230;-67
2023/06/20 04:53:36;;;;;;;1.55;1.10;;;;;;;20.99;100.00;96110.47;5103774;28;20199;-67
2023/06/20 04:56:03;;;;;;;1.60;1.02;;;;;;;20.96;100.00;96116.31;5103158;28;20199;-67
2023/06/20 04:58:30;;;;;;;1.95;1.13;;;;;;;21.02;100.00;96109.97;5102111;28;20229;-68
2023/06/20 05:00:56;;;;;;;2.03;1.33;;;;;;;21.06;100.00;96111.09;5100324;28;20206;-68
2023/06/20 05:03:25;;;;;;;1.23;0.93;;;;;;;21.08;100.00;96103.63;5098899;28;20203;-67
2023/06/20 05:05:51;;;;;;;1.83;0.93;;;;;;;21.07;100.00;96099.31;5096879;28;20210;-65
2023/06/20 05:08:18;;;;;;;2.80;1.25;;;;;;;20.90;100.00;96103.06;5096136;28;20202;-68
2023/06/20 05:10:45;;;;;;;2.38;1.35;;;;;;;20.83;100.00;96128.41;5096351;28;20231;-67
2023/06/20 05:13:11;;;;;;;1.02;0.70;;;;;;;20.85;100.00;96127.91;5097200;28;20203;-67
2023/06/20 05:15:38;;;;;;;2.30;1.55;;;;;;;20.81;100.00;96128.63;5096545;28;20561;-67
2023/06/20 05:18:04;;;;;;;1.90;1.20;;;;;;;20.92;100.00;96128.56;5095906;28;20203;-67
2023/06/20 05:20:33;;;;;;;1.75;1.08;;;;;;;21.04;100.00;96126.63;5098939;28;20202;-67
2023/06/20 05:22:59;;;;;;;1.88;1.08;;;;;;;20.97;100.00;96131.31;5101042;28;20222;-67
2023/06/20 05:25:26;;;;;;;1.88;1.20;;;;;;;21.05;100.00;96138.97;5100621;28;20565;-67
2023/06/20 05:27:52;;;;;;;1.35;1.10;;;;;;;20.98;100.00;96138.31;5100321;28;20206;-67
2023/06/20 05:30:19;;;;;;;1.85;0.80;;;;;;;21.09;100.00;96156.19;5100985;28;20271;-67
2023/06/20 05:32:45;;;;;;;2.30;1.35;;;;;;;21.09;100.00;96145.47;5100212;28;20240;-67
2023/06/20 05:35:12;;;;;;;1.65;1.05;;;;;;;21.06;100.00;96147.81;5101147;28;20320;-67
2023/06/20 05:37:40;;;;;;;2.15;1.23;;;;;;;21.12;100.00;96144.16;5100208;28;20203;-67
2023/06/20 05:40:09;;;;;;;1.35;1.10;;;;;;;21.14;100.00;96142.88;5099929;28;20207;-68
2023/06/20 05:42:35;;;;;;;2.72;1.10;;;;;;;21.34;100.00;96145.03;5099899;28;20341;-67
2023/06/20 05:45:03;;;;;;;2.20;1.25;;;;;;;21.44;100.00;96128.03;5101564;28;20203;-68
2023/06/20 05:47:29;;;;;;;3.58;1.52;;;;;;;21.59;100.00;96135.53;5099762;28;20199;-67
2023/06/20 05:49:59;;;;;;;3.30;1.73;;;;;;;21.61;100.00;96138.75;5099711;28;20252;-67
2023/06/20 05:52:26;;;;;;;2.97;1.15;;;;;;;21.74;100.00;96133.03;5100042;28;20245;-67
2023/06/20 05:54:54;;;;;;;3.80;1.70;;;;;;;21.74;100.00;96135.72;5100453;27;20210;-68
2023/06/20 05:57:21;;;;;;;1.73;1.00;;;;;;;21.67;100.00;96135.09;5099350;28;20252;-69
2023/06/20 05:59:47;;;;;;;3.20;1.73;;;;;;;21.70;100.00;96127.38;5100205;28;20207;-67
2023/06/20 06:02:15;;;;;;;2.13;1.30;;;;;;;21.64;100.00;96122.19;5099955;28;20219;-66
2023/06/20 06:04:43;;;;;;;2.95;1.95;;;;;;;21.36;100.00;96132.19;5099773;27;20226;-69
2023/06/20 06:07:10;;;;;;;3.05;1.02;;;;;;;21.59;100.00;96130.16;5100231;28;20219;-67
2023/06/20 06:09:37;;;;;;;2.40;1.42;;;;;;;21.56;100.00;96127.97;5099052;28;20214;-67
2023/06/20 06:12:06;;;;;;;1.63;1.17;;;;;;;21.80;98.55;96137.41;5099660;28;20230;-67
2023/06/20 06:14:33;;;;;;;3.10;1.77;;;;;;;21.85;100.00;96135.59;5099756;28;20693;-67
2023/06/20 06:17:00;;;;;;;1.48;1.10;;;;;;;21.89;100.00;96135.91;5099927;28;20207;-67
2023/06/20 06:19:26;;;;;;;2.50;1.30;;;;;;;22.11;99.24;96138.38;5099157;28;20221;-67
2023/06/20 06:21:53;;;;;;;3.08;1.42;;;;;;;22.26;99.45;96133.22;5099470;28;20219;-67
2023/06/20 06:24:21;;;;;;;2.67;1.65;;;;;;;22.24;97.49;96124.56;5099608;28;20195;-67
2023/06/20 06:26:48;;;;;;;2.50;1.30;;;;;;;22.29;96.08;96131.91;5099816;28;20195;-68
2023/06/20 06:29:17;;;;;;;2.08;1.33;;;;;;;22.05;98.81;96120.56;5098567;28;20235;-67
2023/06/20 06:31:45;;;;;;;1.63;1.10;;;;;;;22.14;97.28;96134.38;5099019;28;20227;-67
2023/06/20 06:34:16;;;;;;;2.83;1.30;;;;;;;22.35;97.78;96138.91;5099389;28;20256;-68
2023/06/20 06:36:48;;;;;;;1.35;1.05;;;;;;;22.62;96.51;96139.75;5098762;28;20222;-67
2023/06/20 06:39:16;;;;;;;3.35;1.67;;;;;;;22.79;95.46;96149.34;5098424;28;20195;-68
2023/06/20 06:41:44;;;;;;;3.15;1.58;;;;;;;22.77;95.08;96135.34;5099362;28;20227;-67
2023/06/20 06:44:10;;;;;;;1.95;1.50;;;;;;;22.88;93.92;96137.06;5098845;28;20203;-68
2023/06/20 06:46:38;;;;;;;2.88;1.50;;;;;;;22.93;93.14;96129.84;5099395;28;20199;-68
2023/06/20 06:49:05;;;;;;;2.53;1.80;;;;;;;23.08;92.59;96131.91;5098971;28;20671;-68
2023/06/20 06:51:31;;;;;;;6.05;1.70;;;;;;;23.20;91.71;96130.63;5098140;28;20230;-68
2023/06/20 06:53:58;;;;;;;2.25;1.23;;;;;;;23.31;92.65;96141.22;5098780;28;20296;-68
2023/06/20 06:56:24;;;;;;;2.75;1.40;;;;;;;23.30;90.80;96138.78;5100189;28;20546;-68
2023/06/20 06:58:53;;;;;;;2.25;1.38;;;;;;;23.21;92.17;96134.16;5098251;27;20218;-68
2023/06/20 07:01:20;;;;;;;1.92;1.20;;;;;;;23.44;90.48;96129.19;5098361;28;20218;-68
2023/06/20 07:03:48;;;;;;;2.55;1.25;;;;;;;23.38;89.12;96128.38;5098664;28;20260;-68
2023/06/20 07:06:15;;;;;;;2.72;1.58;;;;;;;23.51;91.27;96122.53;5099420;28;20206;-68
2023/06/20 07:08:41;;;;;;;3.72;2.03;;;;;;;23.71;89.13;96128.03;5098162;28;20211;-68
2023/06/20 07:11:08;;;;;;;2.85;1.42;;;;;;;23.66;88.55;96119.94;5098764;28;20223;-68
2023/06/20 07:13:34;;;;;;;3.10;1.40;;;;;;;23.90;89.18;96131.91;5098825;28;20211;-68
2023/06/20 07:16:01;;;;;;;2.45;1.75;;;;;;;23.81;86.06;96130.78;5098399;28;20203;-68
2023/06/20 07:18:27;;;;;;;4.22;2.25;;;;;;;23.97;84.95;96119.06;5097567;28;20203;-68
2023/06/20 07:20:57;;;;;;;2.40;1.30;;;;;;;24.14;83.75;96131.22;5098733;28;20319;-68
2023/06/20 07:23:23;;;;;;;4.93;1.27;;;;;;;24.11;83.83;96128.25;5098121;28;20206;-68
2023/06/20 07:25:50;;;;;;;2.13;1.10;;;;;;;24.37;81.55;96127.28;5098686;28;20203;-67
2023/06/20 07:28:17;;;;;;;3.80;1.20;;;;;;;24.23;81.32;96123.47;5097975;28;20674;-68
2023/06/20 07:30:43;;;;;;;1.88;1.23;;;;;;;24.17;80.97;96127.19;5097551;28;20199;-68
2023/06/20 07:33:10;;;;;;;1.42;1.10;;;;;;;24.43;79.93;96123.56;5097790;28;20846;-67
2023/06/20 07:35:36;;;;;;;2.40;1.25;;;;;;;24.56;79.41;96121.16;5098717;28;20282;-68
2023/06/20 07:38:04;;;;;;;1.65;0.90;;;;;;;24.56;79.18;96127.34;5097468;28;20194;-67
2023/06/20 07:40:31;;;;;;;2.03;1.05;;;;;;;24.53;78.76;96119.00;5097673;28;21101;-70
2023/06/20 07:42:57;;;;;;;2.00;1.05;;;;;;;24.73;78.33;96121.72;5097505;28;20222;-69
2023/06/20 07:45:24;;;;;;;3.08;1.40;;;;;;;24.97;79.35;96122.84;5097643;28;20698;-70
2023/06/20 07:47:50;;;;;;;7.90;1.65;;;;;;;25.09;80.32;96113.44;5097213;28;20203;-69
2023/06/20 07:50:17;;;;;;;2.55;1.15;;;;;;;25.00;75.29;96111.50;5098075;28;20788;-70
2023/06/20 07:52:43;;;;;;;3.50;1.40;;;;;;;25.11;75.61;96115.88;5097130;28;20223;-70
2023/06/20 07:55:12;;;;;;;5.38;1.88;;;;;;;25.14;74.40;96107.22;5097874;28;20223;-69
2023/06/20 07:57:39;;;;;;;1.45;0.85;;;;;;;25.27;73.62;96107.50;5097765;28;20215;-70
2023/06/20 08:00:12;;;;;;;1.73;1.15;;;;;;;25.59;74.14;96102.59;5096901;28;20703;-69
2023/06/20 08:02:38;;;;;;;2.38;1.13;;;;;;;25.68;72.00;96106.34;5097617;28;20219;-70
2023/06/20 08:05:08;;;;;;;1.90;1.25;;;;;;;25.78;72.77;96109.06;5098196;28;20199;-69
2023/06/20 08:07:35;;;;;;;4.47;1.33;;;;;;;25.68;71.87;96100.97;5097544;28;20203;-70
2023/06/20 08:10:02;;;;;;;2.42;1.98;;;;;;;25.93;71.40;96097.13;5096136;28;20203;-69
2023/06/20 08:12:30;;;;;;;1.42;1.08;;;;;;;26.03;70.82;96093.56;5095785;28;20691;-68
2023/06/20 08:14:56;;;;;;;1.50;1.20;;;;;;;26.19;73.68;96098.63;5097275;28;20207;-70
2023/06/20 08:17:23;;;;;;;4.10;1.45;;;;;;;26.33;70.79;96098.84;5095756;28;20214;-70
2023/06/20 08:19:49;;;;;;;2.00;1.40;;;;;;;26.68;70.11;96094.06;5096211;28;20206;-68
2023/06/20 08:22:16;;;;;;;1.63;1.17;;;;;;;26.74;69.17;96092.94;5096990;28;20557;-70
2023/06/20 08:24:42;;;;;;;2.78;1.30;;;;;;;26.70;70.63;96086.50;5096008;28;20237;-69
2023/06/20 08:27:09;;;;;;;2.75;1.60;;;;;;;27.03;68.18;96081.13;5096817;28;20293;-69
2023/06/20 08:29:37;;;;;;;4.65;1.63;;;;;;;26.94;67.47;96088.19;5096163;28;20234;-70
2023/06/20 08:32:04;;;;;;;2.60;1.23;;;;;;;27.15;67.44;96092.38;5096600;28;20230;-70
2023/06/20 08:34:31;;;;;;;1.80;1.17;;;;;;;27.11;64.81;96099.47;5096079;28;20207;-69
2023/06/20 08:36:57;;;;;;;1.98;1.30;;;;;;;26.95;67.04;96084.44;5097001;28;20209;-69
2023/06/20 08:39:24;;;;;;;2.15;1.25;;;;;;;26.90;67.12;96083.66;5095616;28;20461;-69
2023/06/20 08:41:51;;;;;;;4.35;1.20;;;;;;;26.96;65.64;96080.66;5095722;28;20854;-68
2023/06/20 08:44:18;;;;;;;2.42;1.50;;;;;;;26.95;65.68;96079.03;5096496;28;20199;-68
2023/06/20 08:46:46;;;;;;;4.40;1.70;;;;;;;27.08;65.55;96073.78;5096494;28;20457;-69
2023/06/20 08:49:14;;;;;;;1.73;1.05;;;;;;;27.30;64.98;96076.84;5095629;28;20490;-68
2023/06/20 08:51:45;;;;;;;3.00;2.03;;;;;;;27.36;64.23;96083.81;5096045;28;20230;-69
2023/06/20 08:54:16;;;;;;;3.03;1.05;;;;;;;27.47;64.16;96074.50;5096071;28;20206;-70
2023/06/20 08:56:44;;;;;;;3.03;1.40;;;;;;;27.39;62.05;96075.13;5096305;28;20472;-69
2023/06/20 08:59:10;;;;;;;6.55;1.33;;;;;;;27.48;62.10;96078.84;5095761;28;20207;-70
2023/06/20 09:01:37;;;;;;;2.85;1.42;;;;;;;27.61;63.69;96067.38;5095522;28;20226;-70
2023/06/20 09:04:05;;;;;;;4.30;1.05;;;;;;;27.74;65.04;96075.59;5096058;28;20202;-68
2023/06/20 09:06:37;;;;;;;3.53;1.52;;;;;;;27.74;61.62;96072.88;5095857;28;20206;-70
2023/06/20 09:09:04;;;;;;;3.92;1.10;;;;;;;27.95;59.66;96062.63;5095626;28;20234;-70
2023/06/20 09:11:35;;;;;;;3.60;1.67;;;;;;;27.91;61.84;96058.88;5095814;28;20219;-68
2023/06/20 09:14:01;;;;;;;2.30;1.52;;;;;;;28.21;61.12;96061.25;5095771;28;20211;-70
2023/06/20 09:16:28;;;;;;;10.57;1.65;;;;;;;28.44;61.38;96062.00;5096712;28;20252;-70
2023/06/20 09:18:59;;;;;;;3.35;1.40;;;;;;;28.75;58.27;96062.41;5096100;28;20674;-70
2023/06/20 09:21:27;;;;;;;3.03;1.42;;;;;;;28.66;56.75;96059.53;5095275;28;20219;-70
2023/06/20 09:24:02;;;;;;;2.58;1.42;;;;;;;28.74;56.63;96055.38;5095450;28;20754;-68
2023/06/20 09:26:29;;;;;;;1.90;1.05;;;;;;;28.67;55.71;96055.72;5096365;28;20199;-69
2023/06/20 09:29:06;;;;;;;1.95;1.35;;;;;;;29.15;54.89;96057.13;5095584;28;20199;-70
2023/06/20 09:31:41;;;;;;;4.45;1.30;;;;;;;28.83;56.14;96049.00;5095568;28;20513;-69
2023/06/20 09:34:10;;;;;;;2.38;1.40;;;;;;;28.87;56.85;96044.59;5095939;28;20206;-69
2023/06/20 09:36:39;;;;;;;2.85;1.50;;;;;;;29.39;57.40;96049.69;5095992;28;20280;-70
2023/06/20 09:39:10;;;;;;;2.80;1.70;;;;;;;29.65;55.58;96041.59;5095200;28;20200;-70
2023/06/20 09:41:36;;;;;;;5.25;1.42;;;;;;;29.89;56.76;96036.81;5095866;28;20219;-70
2023/06/20 09:44:03;;;;;;;4.20;1.52;;;;;;;29.70;56.44;96036.06;5095548;28;20199;-70
2023/06/20 09:46:30;;;;;;;1.42;1.10;;;;;;;30.16;53.77;96044.94;5095267;28;20444;-69
2023/06/20 09:48:56;;;;;;;4.80;1.90;;;;;;;30.24;54.43;96033.34;5095566;28;20681;-70
2023/06/20 09:51:25;;;;;;;2.50;1.08;;;;;;;30.66;55.12;96033.78;5095560;28;20222;-70
2023/06/20 09:53:59;;;;;;;1.58;1.10;;;;;;;30.83;53.02;96026.56;5095605;28;20214;-70
2023/06/20 09:56:29;;;;;;;4.93;1.50;;;;;;;30.73;52.66;96026.00;5095650;28;20256;-70
2023/06/20 09:58:58;;;;;;;1.55;1.20;;;;;;;31.04;51.61;96021.47;5094946;28;20679;-69
2023/06/20 10:01:27;;;;;;;1.90;1.10;;;;;;;31.02;47.90;96020.97;5095380;28;20219;-70
2023/06/20 10:03:55;;;;;;;2.03;1.42;;;;;;;31.04;48.33;96010.59;5095506;28;20218;-70
2023/06/20 10:06:23;;;;;;;2.00;1.38;;;;;;;31.35;48.28;96005.97;5096987;28;20207;-70
2023/06/20 10:08:51;;;;;;;2.22;1.50;;;;;;;31.47;48.76;95998.84;5098669;28;20202;-70
2023/06/20 10:11:21;;;;;;;2.55;1.50;;;;;;;31.71;45.72;96004.75;5098796;28;20227;-70
2023/06/20 10:13:48;;;;;;;2.13;1.23;;;;;;;31.26;46.43;96005.91;5099519;28;20318;-70
2023/06/20 10:16:15;;;;;;;2.22;1.30;;;;;;;31.45;45.83;95998.31;5098915;28;20222;-70
2023/06/20 10:18:43;;;;;;;2.60;1.33;;;;;;;31.30;45.88;96003.38;5098558;28;20207;-70
2023/06/20 10:21:14;;;;;;;2.55;1.00;;;;;;;31.50;43.38;96000.94;5099452;28;20226;-70
2023/06/20 10:23:41;;;;;;;2.63;1.40;;;;;;;31.63;43.35;96000.88;5099044;28;20195;-70
2023/06/20 10:26:08;;;;;;;3.70;1.65;;;;;;;31.35;43.45;95993.16;5099094;27;20199;-70
2023/06/20 10:28:39;;;;;;;1.98;1.13;;;;;;;31.67;41.31;95992.84;5098281;28;20199;-70
2023/06/20 10:31:05;;;;;;;1.10;1.00;;;;;;;31.70;40.28;96003.13;5099229;28;20219;-70
2023/06/20 10:33:33;;;;;;;1.40;0.88;;;;;;;31.60;40.30;96001.47;5098301;28;20234;-69
2023/06/20 10:36:03;;;;;;;2.33;1.25;;;;;;;31.44;40.54;95996.72;5098521;28;20230;-70
2023/06/20 10:38:30;;;;;;;2.35;1.50;;;;;;;31.49;40.09;95985.72;5098689;28;20195;-69
2023/06/20 10:41:12;;;;;;;1.65;1.10;;;;;;;31.38;40.95;95989.81;5098535;28;20512;-70
2023/06/20 10:43:53;;;;;;;2.72;1.27;;;;;;;31.96;37.58;95991.19;5098843;28;20203;-70
2023/06/20 10:46:22;;;;;;;4.03;1.20;;;;;;;31.57;37.97;95988.50;5098469;28;20972;-70
2023/06/20 10:48:49;;;;;;;2.25;1.25;;;;;;;31.37;39.06;95992.84;5097575;28;20210;-69
2023/06/20 10:51:15;;;;;;;4.90;1.58;;;;;;;31.26;37.60;95986.84;5097784;28;20729;-69
2023/06/20 10:53:42;;;;;;;4.70;1.50;;;;;;;31.38;38.46;95989.00;5098593;28;20239;-69
2023/06/20 10:56:08;;;;;;;2.22;1.48;;;;;;;31.72;38.42;95984.53;5098525;28;20664;-69
2023/06/20 10:58:35;;;;;;;3.05;1.58;;;;;;;31.97;37.44;95992.78;5097532;28;20207;-69
2023/06/20 11:01:03;;;;;;;3.47;1.58;;;;;;;32.24;37.85;95992.56;5098048;28;20226;-69
2023/06/20 11:03:30;;;;;;;2.20;1.30;;;;;;;32.56;37.33;95994.88;5098314;28;20199;-70
2023/06/20 11:05:57;;;;;;;2.08;1.33;;;;;;;32.53;38.20;95981.91;5097435;28;20573;-69
2023/06/20 11:08:26;;;;;;;3.22;1.60;;;;;;;32.39;35.04;95984.72;5097267;28;20286;-70
2023/06/20 11:10:53;;;;;;;2.42;1.17;;;;;;;32.60;35.78;95972.09;5098172;28;20207;-70
2023/06/20 11:13:19;;;;;;;2.78;1.40;;;;;;;32.22;34.47;95984.72;5097845;28;20225;-69
2023/06/20 11:15:46;;;;;;;2.55;1.55;;;;;;;31.99;36.83;95979.66;5098066;28;20207;-70
2023/06/20 11:18:14;;;;;;;2.83;1.70;;;;;;;32.33;37.29;95975.13;5097555;28;20199;-69
2023/06/20 11:20:41;;;;;;;5.80;1.50;;;;;;;31.93;36.90;95963.78;5098120;28;20195;-69
2023/06/20 11:23:12;;;;;;;3.17;1.48;;;;;;;32.51;35.70;95971.31;5098098;28;20191;-69
2023/06/20 11:25:40;;;;;;;7.80;1.85;;;;;;;32.36;36.19;95971.72;5098511;28;20227;-70
2023/06/20 11:28:08;;;;;;;2.10;1.20;;;;;;;32.14;36.58;95971.03;5096994;28;20667;-70
2023/06/20 11:30:37;;;;;;;5.53;1.55;;;;;;;31.84;36.85;95965.69;5097685;28;20203;-71
2023/06/20 11:33:08;;;;;;;2.92;1.55;;;;;;;32.07;36.96;95975.38;5098086;28;20219;-70
2023/06/20 11:35:51;;;;;;;3.78;1.88;;;;;;;32.29;35.29;95970.59;5098047;28;20195;-70